sensor_id;sensor_type;location;lat;lon;timestamp;temperature;humidity
35085;SHT85;21267;51.032;6.998;2023-11-18T00:02:27;4.13;98.42
35085;SHT85;21267;51.032;6.998;2023-11-18T00:04:54;4.09;98.42
35085;SHT85;21267;51.032;6.998;2023-11-18T00:07:21;4.13;98.41
35085;SHT85;21267;51.032;6.998;2023-11-18T00:09:48;4.09;98.31
35085;SHT85;21267;51.032;6.998;2023-11-18T00:12:15;4.08;98.28
35085;SHT85;21267;51.032;6.998;2023-11-18T00:14:42;4.02;98.22
35085;SHT85;21267;51.032;6.998;2023-11-18T00:17:09;4.05;98.20
35085;SHT85;21267;51.032;6.998;2023-11-18T00:19:36;3.96;98.25
35085;SHT85;21267;51.032;6.998;2023-11-18T00:22:03;3.95;98.19
35085;SHT85;21267;51.032;6.998;2023-11-18T00:24:30;3.98;98.24
35085;SHT85;21267;51.032;6.998;2023-11-18T00:27:01;3.98;98.14
35085;SHT85;21267;51.032;6.998;2023-11-18T00:29:35;3.94;98.07
35085;SHT85;21267;51.032;6.998;2023-11-18T00:32:04;3.96;97.99
35085;SHT85;21267;51.032;6.998;2023-11-18T00:34:31;3.96;97.85
35085;SHT85;21267;51.032;6.998;2023-11-18T00:36:58;3.88;97.67
35085;SHT85;21267;51.032;6.998;2023-11-18T00:39:25;3.89;97.67
35085;SHT85;21267;51.032;6.998;2023-11-18T00:41:53;3.95;97.74
35085;SHT85;21267;51.032;6.998;2023-11-18T00:44:22;3.89;97.74
35085;SHT85;21267;51.032;6.998;2023-11-18T00:46:49;3.91;97.78
35085;SHT85;21267;51.032;6.998;2023-11-18T00:49:16;3.81;97.81
35085;SHT85;21267;51.032;6.998;2023-11-18T00:51:44;3.87;97.88
35085;SHT85;21267;51.032;6.998;2023-11-18T00:54:11;3.82;97.91
35085;SHT85;21267;51.032;6.998;2023-11-18T00:56:39;3.81;97.99
35085;SHT85;21267;51.032;6.998;2023-11-18T01:01:38;3.79;98.05
35085;SHT85;21267;51.032;6.998;2023-11-18T01:04:05;3.77;98.02
35085;SHT85;21267;51.032;6.998;2023-11-18T01:06:35;3.84;98.08
35085;SHT85;21267;51.032;6.998;2023-11-18T01:09:02;3.82;98.03
35085;SHT85;21267;51.032;6.998;2023-11-18T01:11:32;3.77;97.99
35085;SHT85;21267;51.032;6.998;2023-11-18T01:13:59;3.84;98.01
35085;SHT85;21267;51.032;6.998;2023-11-18T01:16:32;3.85;98.00
35085;SHT85;21267;51.032;6.998;2023-11-18T01:19:00;3.79;97.81
35085;SHT85;21267;51.032;6.998;2023-11-18T01:21:26;3.87;97.79
35085;SHT85;21267;51.032;6.998;2023-11-18T01:24:08;3.84;97.74
35085;SHT85;21267;51.032;6.998;2023-11-18T01:26:35;3.89;97.58
35085;SHT85;21267;51.032;6.998;2023-11-18T01:29:17;3.87;97.44
35085;SHT85;21267;51.032;6.998;2023-11-18T01:31:44;3.92;97.41
35085;SHT85;21267;51.032;6.998;2023-11-18T01:34:24;3.88;97.22
35085;SHT85;21267;51.032;6.998;2023-11-18T01:36:52;3.96;97.04
35085;SHT85;21267;51.032;6.998;2023-11-18T01:39:19;3.92;96.88
35085;SHT85;21267;51.032;6.998;2023-11-18T01:41:55;3.89;96.82
35085;SHT85;21267;51.032;6.998;2023-11-18T01:44:22;3.87;96.77
35085;SHT85;21267;51.032;6.998;2023-11-18T01:46:50;3.91;96.70
35085;SHT85;21267;51.032;6.998;2023-11-18T01:49:17;3.91;96.68
35085;SHT85;21267;51.032;6.998;2023-11-18T01:51:46;3.91;96.54
35085;SHT85;21267;51.032;6.998;2023-11-18T01:54:15;3.96;96.45
35085;SHT85;21267;51.032;6.998;2023-11-18T01:56:47;3.95;96.44
35085;SHT85;21267;51.032;6.998;2023-11-18T01:59:14;3.91;96.59
35085;SHT85;21267;51.032;6.998;2023-11-18T02:01:52;3.96;96.48
35085;SHT85;21267;51.032;6.998;2023-11-18T02:04:20;3.95;96.46
35085;SHT85;21267;51.032;6.998;2023-11-18T02:07:04;3.91;96.33
35085;SHT85;21267;51.032;6.998;2023-11-18T02:09:36;3.98;96.27
35085;SHT85;21267;51.032;6.998;2023-11-18T02:12:27;3.99;96.41
35085;SHT85;21267;51.032;6.998;2023-11-18T02:14:57;3.98;96.31
35085;SHT85;21267;51.032;6.998;2023-11-18T02:17:27;3.91;96.24
35085;SHT85;21267;51.032;6.998;2023-11-18T02:19:56;3.98;96.28
35085;SHT85;21267;51.032;6.998;2023-11-18T02:22:27;3.99;96.31
35085;SHT85;21267;51.032;6.998;2023-11-18T02:24:54;3.98;96.40
35085;SHT85;21267;51.032;6.998;2023-11-18T02:27:26;3.92;96.37
35085;SHT85;21267;51.032;6.998;2023-11-18T02:30:07;3.92;96.49
35085;SHT85;21267;51.032;6.998;2023-11-18T02:32:58;3.92;96.53
35085;SHT85;21267;51.032;6.998;2023-11-18T02:35:38;3.95;96.52
35085;SHT85;21267;51.032;6.998;2023-11-18T02:38:08;3.95;96.44
35085;SHT85;21267;51.032;6.998;2023-11-18T02:40:39;3.91;96.54
35085;SHT85;21267;51.032;6.998;2023-11-18T02:43:11;3.91;96.59
35085;SHT85;21267;51.032;6.998;2023-11-18T02:45:39;3.89;96.59
35085;SHT85;21267;51.032;6.998;2023-11-18T02:48:10;3.89;96.64
35085;SHT85;21267;51.032;6.998;2023-11-18T02:50:37;3.88;96.58
35085;SHT85;21267;51.032;6.998;2023-11-18T02:53:04;3.91;96.60
35085;SHT85;21267;51.032;6.998;2023-11-18T02:55:32;3.87;96.71
35085;SHT85;21267;51.032;6.998;2023-11-18T02:57:58;3.89;96.73
35085;SHT85;21267;51.032;6.998;2023-11-18T03:00:27;3.85;96.79
35085;SHT85;21267;51.032;6.998;2023-11-18T03:02:54;3.91;96.87
35085;SHT85;21267;51.032;6.998;2023-11-18T03:05:22;3.89;96.86
35085;SHT85;21267;51.032;6.998;2023-11-18T03:07:49;3.92;96.85
35085;SHT85;21267;51.032;6.998;2023-11-18T03:10:21;3.94;96.83
35085;SHT85;21267;51.032;6.998;2023-11-18T03:12:53;3.91;96.75
35085;SHT85;21267;51.032;6.998;2023-11-18T03:15:21;3.91;96.80
35085;SHT85;21267;51.032;6.998;2023-11-18T03:17:49;3.92;96.78
35085;SHT85;21267;51.032;6.998;2023-11-18T03:20:19;3.95;96.81
35085;SHT85;21267;51.032;6.998;2023-11-18T03:23:00;3.89;96.80
35085;SHT85;21267;51.032;6.998;2023-11-18T03:25:29;3.91;96.82
35085;SHT85;21267;51.032;6.998;2023-11-18T03:28:10;3.91;96.92
35085;SHT85;21267;51.032;6.998;2023-11-18T03:30:36;3.94;96.90
35085;SHT85;21267;51.032;6.998;2023-11-18T03:33:18;3.92;96.99
35085;SHT85;21267;51.032;6.998;2023-11-18T03:35:45;3.88;96.92
35085;SHT85;21267;51.032;6.998;2023-11-18T03:38:12;3.92;97.01
35085;SHT85;21267;51.032;6.998;2023-11-18T03:40:53;3.98;96.98
35085;SHT85;21267;51.032;6.998;2023-11-18T03:43:20;3.99;96.89
35085;SHT85;21267;51.032;6.998;2023-11-18T03:45:46;3.96;96.71
35085;SHT85;21267;51.032;6.998;2023-11-18T03:48:14;4.02;96.77
35085;SHT85;21267;51.032;6.998;2023-11-18T03:50:54;3.99;96.74
35085;SHT85;21267;51.032;6.998;2023-11-18T03:53:21;3.98;96.82
35085;SHT85;21267;51.032;6.998;2023-11-18T03:55:47;3.96;96.74
35085;SHT85;21267;51.032;6.998;2023-11-18T03:58:28;3.98;96.76
35085;SHT85;21267;51.032;6.998;2023-11-18T04:00:55;3.94;96.85
35085;SHT85;21267;51.032;6.998;2023-11-18T04:03:36;3.92;96.98
35085;SHT85;21267;51.032;6.998;2023-11-18T04:06:03;3.94;97.02
35085;SHT85;21267;51.032;6.998;2023-11-18T04:08:44;3.89;97.11
35085;SHT85;21267;51.032;6.998;2023-11-18T04:11:15;3.94;97.12
35085;SHT85;21267;51.032;6.998;2023-11-18T04:13:55;3.95;97.21
35085;SHT85;21267;51.032;6.998;2023-11-18T04:16:23;3.96;97.18
35085;SHT85;21267;51.032;6.998;2023-11-18T04:18:51;3.95;97.26
35085;SHT85;21267;51.032;6.998;2023-11-18T04:21:28;3.92;97.31
35085;SHT85;21267;51.032;6.998;2023-11-18T04:23:57;3.92;97.29
35085;SHT85;21267;51.032;6.998;2023-11-18T04:26:24;3.94;97.25
35085;SHT85;21267;51.032;6.998;2023-11-18T04:28:51;3.91;97.27
35085;SHT85;21267;51.032;6.998;2023-11-18T04:31:19;3.88;97.36
35085;SHT85;21267;51.032;6.998;2023-11-18T04:33:45;3.82;97.35
35085;SHT85;21267;51.032;6.998;2023-11-18T04:36:28;3.82;97.45
35085;SHT85;21267;51.032;6.998;2023-11-18T04:38:55;3.78;97.53
35085;SHT85;21267;51.032;6.998;2023-11-18T04:41:36;3.75;97.64
35085;SHT85;21267;51.032;6.998;2023-11-18T04:44:03;3.75;97.74
35085;SHT85;21267;51.032;6.998;2023-11-18T04:46:30;3.79;97.64
35085;SHT85;21267;51.032;6.998;2023-11-18T04:49:04;3.77;97.68
35085;SHT85;21267;51.032;6.998;2023-11-18T04:51:33;3.77;97.67
35085;SHT85;21267;51.032;6.998;2023-11-18T04:54:00;3.77;97.62
35085;SHT85;21267;51.032;6.998;2023-11-18T04:56:30;3.79;97.65
35085;SHT85;21267;51.032;6.998;2023-11-18T04:58:57;3.82;97.55
35085;SHT85;21267;51.032;6.998;2023-11-18T05:01:25;3.82;97.50
35085;SHT85;21267;51.032;6.998;2023-11-18T05:03:56;3.84;97.47
35085;SHT85;21267;51.032;6.998;2023-11-18T05:06:23;3.88;97.47
35085;SHT85;21267;51.032;6.998;2023-11-18T05:08:50;3.85;97.39
35085;SHT85;21267;51.032;6.998;2023-11-18T05:11:30;3.84;97.39
35085;SHT85;21267;51.032;6.998;2023-11-18T05:13:58;3.88;97.39
35085;SHT85;21267;51.032;6.998;2023-11-18T05:16:39;3.85;97.36
35085;SHT85;21267;51.032;6.998;2023-11-18T05:19:06;3.89;97.41
35085;SHT85;21267;51.032;6.998;2023-11-18T05:21:34;3.89;97.43
35085;SHT85;21267;51.032;6.998;2023-11-18T05:24:00;3.91;97.47
35085;SHT85;21267;51.032;6.998;2023-11-18T05:26:27;3.95;97.52
35085;SHT85;21267;51.032;6.998;2023-11-18T05:28:54;3.98;97.48
35085;SHT85;21267;51.032;6.998;2023-11-18T05:31:24;4.01;97.44
35085;SHT85;21267;51.032;6.998;2023-11-18T05:33:51;4.06;97.39
35085;SHT85;21267;51.032;6.998;2023-11-18T05:36:22;4.03;97.27
35085;SHT85;21267;51.032;6.998;2023-11-18T05:38:54;4.06;97.28
35085;SHT85;21267;51.032;6.998;2023-11-18T05:41:21;4.12;97.25
35085;SHT85;21267;51.032;6.998;2023-11-18T05:43:55;4.13;97.22
35085;SHT85;21267;51.032;6.998;2023-11-18T05:46:24;4.12;97.13
35085;SHT85;21267;51.032;6.998;2023-11-18T05:48:53;4.19;97.15
35085;SHT85;21267;51.032;6.998;2023-11-18T05:51:24;4.19;97.05
35085;SHT85;21267;51.032;6.998;2023-11-18T05:53:51;4.20;97.06
35085;SHT85;21267;51.032;6.998;2023-11-18T05:56:19;4.17;97.05
35085;SHT85;21267;51.032;6.998;2023-11-18T05:58:47;4.23;96.94
35085;SHT85;21267;51.032;6.998;2023-11-18T06:01:15;4.26;96.88
35085;SHT85;21267;51.032;6.998;2023-11-18T06:03:44;4.30;96.89
35085;SHT85;21267;51.032;6.998;2023-11-18T06:06:15;4.35;96.86
35085;SHT85;21267;51.032;6.998;2023-11-18T06:08:49;4.35;96.72
35085;SHT85;21267;51.032;6.998;2023-11-18T06:11:19;4.39;96.77
35085;SHT85;21267;51.032;6.998;2023-11-18T06:13:51;4.40;96.60
35085;SHT85;21267;51.032;6.998;2023-11-18T06:16:20;4.39;96.63
35085;SHT85;21267;51.032;6.998;2023-11-18T06:18:49;4.42;96.64
35085;SHT85;21267;51.032;6.998;2023-11-18T06:21:22;4.42;96.66
35085;SHT85;21267;51.032;6.998;2023-11-18T06:23:58;4.46;96.61
35085;SHT85;21267;51.032;6.998;2023-11-18T06:26:26;4.46;96.65
35085;SHT85;21267;51.032;6.998;2023-11-18T06:28:56;4.43;96.63
35085;SHT85;21267;51.032;6.998;2023-11-18T06:31:23;4.45;96.70
35085;SHT85;21267;51.032;6.998;2023-11-18T06:33:50;4.47;96.72
35085;SHT85;21267;51.032;6.998;2023-11-18T06:36:18;4.47;96.69
35085;SHT85;21267;51.032;6.998;2023-11-18T06:38:52;4.49;96.70
35085;SHT85;21267;51.032;6.998;2023-11-18T06:41:21;4.52;96.73
35085;SHT85;21267;51.032;6.998;2023-11-18T06:44:01;4.50;96.76
35085;SHT85;21267;51.032;6.998;2023-11-18T06:46:36;4.56;96.66
35085;SHT85;21267;51.032;6.998;2023-11-18T06:49:07;4.52;96.61
35085;SHT85;21267;51.032;6.998;2023-11-18T06:51:37;4.54;96.64
35085;SHT85;21267;51.032;6.998;2023-11-18T06:54:05;4.54;96.74
35085;SHT85;21267;51.032;6.998;2023-11-18T06:56:38;4.61;96.64
35085;SHT85;21267;51.032;6.998;2023-11-18T06:59:09;4.67;96.55
35085;SHT85;21267;51.032;6.998;2023-11-18T07:01:41;4.63;96.55
35085;SHT85;21267;51.032;6.998;2023-11-18T07:04:12;4.66;96.57
35085;SHT85;21267;51.032;6.998;2023-11-18T07:06:38;4.71;96.45
35085;SHT85;21267;51.032;6.998;2023-11-18T07:09:07;4.71;96.36
35085;SHT85;21267;51.032;6.998;2023-11-18T07:11:46;4.71;96.38
35085;SHT85;21267;51.032;6.998;2023-11-18T07:14:15;4.70;96.32
35085;SHT85;21267;51.032;6.998;2023-11-18T07:16:43;4.76;96.30
35085;SHT85;21267;51.032;6.998;2023-11-18T07:19:13;4.77;96.31
35085;SHT85;21267;51.032;6.998;2023-11-18T07:21:50;4.81;96.34
35085;SHT85;21267;51.032;6.998;2023-11-18T07:24:18;4.84;96.18
35085;SHT85;21267;51.032;6.998;2023-11-18T07:26:48;4.87;96.12
35085;SHT85;21267;51.032;6.998;2023-11-18T07:33:38;4.91;96.15
35085;SHT85;21267;51.032;6.998;2023-11-18T07:36:10;4.98;96.13
35085;SHT85;21267;51.032;6.998;2023-11-18T07:38:38;4.95;95.96
35085;SHT85;21267;51.032;6.998;2023-11-18T07:41:06;4.98;96.00
35085;SHT85;21267;51.032;6.998;2023-11-18T07:43:35;5.05;95.91
35085;SHT85;21267;51.032;6.998;2023-11-18T07:46:07;5.04;95.83
35085;SHT85;21267;51.032;6.998;2023-11-18T07:48:34;5.01;95.94
35085;SHT85;21267;51.032;6.998;2023-11-18T07:51:01;5.08;95.84
35085;SHT85;21267;51.032;6.998;2023-11-18T07:53:28;5.12;95.69
35085;SHT85;21267;51.032;6.998;2023-11-18T07:55:57;5.15;95.69
35085;SHT85;21267;51.032;6.998;2023-11-18T07:58:24;5.15;95.64
35085;SHT85;21267;51.032;6.998;2023-11-18T08:00:50;5.25;95.65
35085;SHT85;21267;51.032;6.998;2023-11-18T08:03:17;5.25;95.56
35085;SHT85;21267;51.032;6.998;2023-11-18T08:05:51;5.34;95.37
35085;SHT85;21267;51.032;6.998;2023-11-18T08:08:18;5.36;95.27
35085;SHT85;21267;51.032;6.998;2023-11-18T08:10:45;5.35;95.27
35085;SHT85;21267;51.032;6.998;2023-11-18T08:13:15;5.39;95.11
35085;SHT85;21267;51.032;6.998;2023-11-18T08:15:45;5.43;95.06
35085;SHT85;21267;51.032;6.998;2023-11-18T08:18:14;5.47;94.88
35085;SHT85;21267;51.032;6.998;2023-11-18T08:20:41;5.55;94.86
35085;SHT85;21267;51.032;6.998;2023-11-18T08:23:10;5.57;94.79
35085;SHT85;21267;51.032;6.998;2023-11-18T08:25:38;5.60;94.79
35085;SHT85;21267;51.032;6.998;2023-11-18T08:28:09;5.66;94.73
35085;SHT85;21267;51.032;6.998;2023-11-18T08:30:38;5.65;94.63
35085;SHT85;21267;51.032;6.998;2023-11-18T08:33:06;5.70;94.61
35085;SHT85;21267;51.032;6.998;2023-11-18T08:35:36;5.76;94.49
35085;SHT85;21267;51.032;6.998;2023-11-18T08:38:04;5.76;94.43
35085;SHT85;21267;51.032;6.998;2023-11-18T08:40:35;5.83;94.40
35085;SHT85;21267;51.032;6.998;2023-11-18T08:43:02;5.90;94.32
35085;SHT85;21267;51.032;6.998;2023-11-18T08:45:35;5.94;94.22
35085;SHT85;21267;51.032;6.998;2023-11-18T08:48:05;6.01;94.18
35085;SHT85;21267;51.032;6.998;2023-11-18T08:50:36;6.03;94.11
35085;SHT85;21267;51.032;6.998;2023-11-18T08:53:04;6.05;94.00
35085;SHT85;21267;51.032;6.998;2023-11-18T08:55:32;6.13;93.89
35085;SHT85;21267;51.032;6.998;2023-11-18T08:58:10;6.18;93.83
35085;SHT85;21267;51.032;6.998;2023-11-18T09:00:52;6.25;93.84
35085;SHT85;21267;51.032;6.998;2023-11-18T09:03:25;6.29;93.72
35085;SHT85;21267;51.032;6.998;2023-11-18T09:06:03;6.35;93.56
35085;SHT85;21267;51.032;6.998;2023-11-18T09:08:36;6.38;93.48
35085;SHT85;21267;51.032;6.998;2023-11-18T09:11:07;6.44;93.52
35085;SHT85;21267;51.032;6.998;2023-11-18T09:13:51;6.48;93.39
35085;SHT85;21267;51.032;6.998;2023-11-18T09:16:24;6.53;93.43
35085;SHT85;21267;51.032;6.998;2023-11-18T09:19:09;6.57;93.30
35085;SHT85;21267;51.032;6.998;2023-11-18T09:21:37;6.61;93.30
35085;SHT85;21267;51.032;6.998;2023-11-18T09:24:13;6.56;93.35
35085;SHT85;21267;51.032;6.998;2023-11-18T09:26:46;6.66;93.31
35085;SHT85;21267;51.032;6.998;2023-11-18T09:29:25;6.66;93.11
35085;SHT85;21267;51.032;6.998;2023-11-18T09:31:55;6.62;93.23
35085;SHT85;21267;51.032;6.998;2023-11-18T09:34:33;6.68;93.31
35085;SHT85;21267;51.032;6.998;2023-11-18T09:37:00;6.69;93.32
35085;SHT85;21267;51.032;6.998;2023-11-18T09:39:27;6.72;93.24
35085;SHT85;21267;51.032;6.998;2023-11-18T09:42:05;6.73;93.22
35085;SHT85;21267;51.032;6.998;2023-11-18T09:44:36;6.79;93.26
35085;SHT85;21267;51.032;6.998;2023-11-18T09:47:14;6.79;92.96
35085;SHT85;21267;51.032;6.998;2023-11-18T09:49:45;6.82;92.96
35085;SHT85;21267;51.032;6.998;2023-11-18T09:52:26;6.89;93.09
35085;SHT85;21267;51.032;6.998;2023-11-18T09:55:04;6.93;92.89
35085;SHT85;21267;51.032;6.998;2023-11-18T09:57:49;6.96;92.93
35085;SHT85;21267;51.032;6.998;2023-11-18T10:00:26;7.00;92.82
35085;SHT85;21267;51.032;6.998;2023-11-18T10:02:54;7.08;92.65
35085;SHT85;21267;51.032;6.998;2023-11-18T10:05:24;7.11;92.63
35085;SHT85;21267;51.032;6.998;2023-11-18T10:07:54;7.13;92.59
35085;SHT85;21267;51.032;6.998;2023-11-18T10:10:27;7.11;92.59
35085;SHT85;21267;51.032;6.998;2023-11-18T10:13:04;7.15;92.63
35085;SHT85;21267;51.032;6.998;2023-11-18T10:15:53;7.23;92.56
35085;SHT85;21267;51.032;6.998;2023-11-18T10:18:23;7.23;92.45
35085;SHT85;21267;51.032;6.998;2023-11-18T10:21:03;7.27;92.43
35085;SHT85;21267;51.032;6.998;2023-11-18T10:23:34;7.27;92.44
35085;SHT85;21267;51.032;6.998;2023-11-18T10:26:17;7.32;92.47
35085;SHT85;21267;51.032;6.998;2023-11-18T10:28:45;7.32;92.38
35085;SHT85;21267;51.032;6.998;2023-11-18T10:31:28;7.35;92.17
35085;SHT85;21267;51.032;6.998;2023-11-18T10:33:55;7.36;92.23
35085;SHT85;21267;51.032;6.998;2023-11-18T10:36:36;7.38;92.24
35085;SHT85;21267;51.032;6.998;2023-11-18T10:39:03;7.38;92.30
35085;SHT85;21267;51.032;6.998;2023-11-18T10:41:47;7.41;92.22
35085;SHT85;21267;51.032;6.998;2023-11-18T10:44:17;7.44;92.17
35085;SHT85;21267;51.032;6.998;2023-11-18T10:46:59;7.45;92.12
35085;SHT85;21267;51.032;6.998;2023-11-18T10:49:29;7.44;92.16
35085;SHT85;21267;51.032;6.998;2023-11-18T10:52:08;7.48;92.17
35085;SHT85;21267;51.032;6.998;2023-11-18T10:54:50;7.51;92.23
35085;SHT85;21267;51.032;6.998;2023-11-18T10:57:23;7.47;92.17
35085;SHT85;21267;51.032;6.998;2023-11-18T11:00:19;7.48;92.17
35085;SHT85;21267;51.032;6.998;2023-11-18T11:18:29;7.59;92.02
35085;SHT85;21267;51.032;6.998;2023-11-18T18:58:38;7.82;99.92
35085;SHT85;21267;51.032;6.998;2023-11-18T19:01:09;7.89;99.98
35085;SHT85;21267;51.032;6.998;2023-11-18T19:03:39;7.87;99.99
35085;SHT85;21267;51.032;6.998;2023-11-18T19:06:06;7.89;99.99
35085;SHT85;21267;51.032;6.998;2023-11-18T19:08:33;7.92;99.99
35085;SHT85;21267;51.032;6.998;2023-11-18T19:11:00;7.89;99.99
35085;SHT85;21267;51.032;6.998;2023-11-18T19:13:26;7.87;99.99
35085;SHT85;21267;51.032;6.998;2023-11-18T19:15:53;7.87;99.99
35085;SHT85;21267;51.032;6.998;2023-11-18T19:18:20;7.93;99.99
35085;SHT85;21267;51.032;6.998;2023-11-18T19:20:47;7.93;99.99
35085;SHT85;21267;51.032;6.998;2023-11-18T19:23:14;7.96;99.99
35085;SHT85;21267;51.032;6.998;2023-11-18T19:25:41;7.99;99.99
35085;SHT85;21267;51.032;6.998;2023-11-18T19:28:07;7.93;99.99
35085;SHT85;21267;51.032;6.998;2023-11-18T19:30:37;7.94;99.99
35085;SHT85;21267;51.032;6.998;2023-11-18T19:33:04;7.97;99.99
35085;SHT85;21267;51.032;6.998;2023-11-18T19:35:31;7.97;99.99
35085;SHT85;21267;51.032;6.998;2023-11-18T19:37:58;8.03;99.99
35085;SHT85;21267;51.032;6.998;2023-11-18T19:40:27;8.06;99.99
35085;SHT85;21267;51.032;6.998;2023-11-18T19:42:54;8.04;99.99
35085;SHT85;21267;51.032;6.998;2023-11-18T19:45:22;8.09;99.99
35085;SHT85;21267;51.032;6.998;2023-11-18T19:47:49;8.09;99.99
35085;SHT85;21267;51.032;6.998;2023-11-18T19:50:16;8.09;99.99
35085;SHT85;21267;51.032;6.998;2023-11-18T19:52:53;8.10;99.99
35085;SHT85;21267;51.032;6.998;2023-11-18T19:55:20;8.10;99.99
35085;SHT85;21267;51.032;6.998;2023-11-18T19:57:47;8.13;99.99
35085;SHT85;21267;51.032;6.998;2023-11-18T20:00:14;8.16;99.99
35085;SHT85;21267;51.032;6.998;2023-11-18T20:02:44;8.14;99.99
35085;SHT85;21267;51.032;6.998;2023-11-18T20:05:12;8.17;99.99
35085;SHT85;21267;51.032;6.998;2023-11-18T20:07:39;8.19;99.99
35085;SHT85;21267;51.032;6.998;2023-11-18T20:10:08;8.20;99.99
35085;SHT85;21267;51.032;6.998;2023-11-18T20:12:35;8.22;99.99
35085;SHT85;21267;51.032;6.998;2023-11-18T20:15:02;8.23;99.99
35085;SHT85;21267;51.032;6.998;2023-11-18T20:17:30;8.23;99.99
35085;SHT85;21267;51.032;6.998;2023-11-18T20:20:02;8.23;99.99
35085;SHT85;21267;51.032;6.998;2023-11-18T20:22:32;8.27;99.99
35085;SHT85;21267;51.032;6.998;2023-11-18T20:25:02;8.29;99.99
35085;SHT85;21267;51.032;6.998;2023-11-18T20:27:29;8.33;99.99
35085;SHT85;21267;51.032;6.998;2023-11-18T20:29:55;8.34;99.99
35085;SHT85;21267;51.032;6.998;2023-11-18T20:32:22;8.37;99.99
35085;SHT85;21267;51.032;6.998;2023-11-18T20:34:49;8.40;99.99
35085;SHT85;21267;51.032;6.998;2023-11-18T20:37:16;8.40;99.99
35085;SHT85;21267;51.032;6.998;2023-11-18T20:39:43;8.43;99.99
35085;SHT85;21267;51.032;6.998;2023-11-18T20:42:10;8.45;99.99
35085;SHT85;21267;51.032;6.998;2023-11-18T20:44:37;8.47;99.99
35085;SHT85;21267;51.032;6.998;2023-11-18T20:47:04;8.50;99.99
35085;SHT85;21267;51.032;6.998;2023-11-18T20:49:33;8.50;99.99
35085;SHT85;21267;51.032;6.998;2023-11-18T20:52:00;8.51;99.99
35085;SHT85;21267;51.032;6.998;2023-11-18T20:54:27;8.51;99.92
35085;SHT85;21267;51.032;6.998;2023-11-18T20:56:54;8.58;99.89
35085;SHT85;21267;51.032;6.998;2023-11-18T20:59:21;8.60;99.75
35085;SHT85;21267;51.032;6.998;2023-11-18T21:01:48;8.62;99.62
35085;SHT85;21267;51.032;6.998;2023-11-18T21:04:17;8.58;99.61
35085;SHT85;21267;51.032;6.998;2023-11-18T21:06:44;8.62;99.70
35085;SHT85;21267;51.032;6.998;2023-11-18T21:09:11;8.71;99.58
35085;SHT85;21267;51.032;6.998;2023-11-18T21:11:38;8.75;99.46
35085;SHT85;21267;51.032;6.998;2023-11-18T21:14:04;8.76;99.31
35085;SHT85;21267;51.032;6.998;2023-11-18T21:16:32;8.81;99.23
35085;SHT85;21267;51.032;6.998;2023-11-18T21:18:59;8.88;99.09
35085;SHT85;21267;51.032;6.998;2023-11-18T21:21:27;8.91;98.82
35085;SHT85;21267;51.032;6.998;2023-11-18T21:23:54;8.95;98.73
35085;SHT85;21267;51.032;6.998;2023-11-18T21:26:21;8.98;98.72
35085;SHT85;21267;51.032;6.998;2023-11-18T21:28:51;9.02;98.39
35085;SHT85;21267;51.032;6.998;2023-11-18T21:31:18;9.08;98.14
35085;SHT85;21267;51.032;6.998;2023-11-18T21:33:45;9.15;98.02
35085;SHT85;21267;51.032;6.998;2023-11-18T21:36:14;9.13;98.06
35085;SHT85;21267;51.032;6.998;2023-11-18T21:38:41;9.19;97.96
35085;SHT85;21267;51.032;6.998;2023-11-18T21:41:08;9.19;97.81
35085;SHT85;21267;51.032;6.998;2023-11-18T21:43:35;9.24;97.76
35085;SHT85;21267;51.032;6.998;2023-11-18T21:46:02;9.26;97.62
35085;SHT85;21267;51.032;6.998;2023-11-18T21:48:29;9.32;97.66
35085;SHT85;21267;51.032;6.998;2023-11-18T21:51:00;9.34;97.55
35085;SHT85;21267;51.032;6.998;2023-11-18T21:53:27;9.36;97.57
35085;SHT85;21267;51.032;6.998;2023-11-18T21:55:54;9.34;97.61
35085;SHT85;21267;51.032;6.998;2023-11-18T21:58:22;9.40;97.38
35085;SHT85;21267;51.032;6.998;2023-11-18T22:00:57;9.41;97.45
35085;SHT85;21267;51.032;6.998;2023-11-18T22:03:30;9.46;97.41
35085;SHT85;21267;51.032;6.998;2023-11-18T22:06:04;9.46;97.43
35085;SHT85;21267;51.032;6.998;2023-11-18T22:08:40;9.46;97.43
35085;SHT85;21267;51.032;6.998;2023-11-18T22:11:08;9.50;97.23
35085;SHT85;21267;51.032;6.998;2023-11-18T22:13:39;9.51;97.39
35085;SHT85;21267;51.032;6.998;2023-11-18T22:16:09;9.55;97.16
35085;SHT85;21267;51.032;6.998;2023-11-18T22:18:36;9.57;97.32
35085;SHT85;21267;51.032;6.998;2023-11-18T22:21:07;9.57;97.36
35085;SHT85;21267;51.032;6.998;2023-11-18T22:23:56;9.61;97.40
35085;SHT85;21267;51.032;6.998;2023-11-18T22:26:26;9.64;97.34
35085;SHT85;21267;51.032;6.998;2023-11-18T22:28:54;9.61;97.32
35085;SHT85;21267;51.032;6.998;2023-11-18T22:31:25;9.63;97.39
35085;SHT85;21267;51.032;6.998;2023-11-18T22:33:56;9.61;97.45
35085;SHT85;21267;51.032;6.998;2023-11-18T22:36:35;9.55;97.61
35085;SHT85;21267;51.032;6.998;2023-11-18T22:39:02;9.57;97.87
35085;SHT85;21267;51.032;6.998;2023-11-18T22:41:32;9.55;97.96
35085;SHT85;21267;51.032;6.998;2023-11-18T22:44:00;9.60;98.05
35085;SHT85;21267;51.032;6.998;2023-11-18T22:46:41;9.57;98.15
35085;SHT85;21267;51.032;6.998;2023-11-18T22:49:10;9.55;98.25
35085;SHT85;21267;51.032;6.998;2023-11-18T22:51:41;9.54;98.44
35085;SHT85;21267;51.032;6.998;2023-11-18T22:54:13;9.57;98.57
35085;SHT85;21267;51.032;6.998;2023-11-18T22:56:46;9.57;98.64
35085;SHT85;21267;51.032;6.998;2023-11-18T22:59:17;9.55;98.68
35085;SHT85;21267;51.032;6.998;2023-11-18T23:01:55;9.53;98.88
35085;SHT85;21267;51.032;6.998;2023-11-18T23:04:52;9.57;99.03
35085;SHT85;21267;51.032;6.998;2023-11-18T23:07:32;9.53;99.18
35085;SHT85;21267;51.032;6.998;2023-11-18T23:09:59;9.51;99.36
35085;SHT85;21267;51.032;6.998;2023-11-18T23:12:30;9.53;99.57
35085;SHT85;21267;51.032;6.998;2023-11-18T23:15:00;9.53;99.64
35085;SHT85;21267;51.032;6.998;2023-11-18T23:17:30;9.55;99.72
35085;SHT85;21267;51.032;6.998;2023-11-18T23:19:58;9.55;99.78
35085;SHT85;21267;51.032;6.998;2023-11-18T23:22:25;9.57;99.88
35085;SHT85;21267;51.032;6.998;2023-11-18T23:24:52;9.60;99.92
35085;SHT85;21267;51.032;6.998;2023-11-18T23:27:22;9.58;99.92
35085;SHT85;21267;51.032;6.998;2023-11-18T23:30:08;9.61;99.89
35085;SHT85;21267;51.032;6.998;2023-11-18T23:32:40;9.63;99.89
35085;SHT85;21267;51.032;6.998;2023-11-18T23:35:11;9.64;99.89
35085;SHT85;21267;51.032;6.998;2023-11-18T23:37:50;9.69;99.82
35085;SHT85;21267;51.032;6.998;2023-11-18T23:40:29;9.70;99.76
35085;SHT85;21267;51.032;6.998;2023-11-18T23:43:12;9.70;99.72
35085;SHT85;21267;51.032;6.998;2023-11-18T23:45:40;9.71;99.73
35085;SHT85;21267;51.032;6.998;2023-11-18T23:48:25;9.73;99.74
35085;SHT85;21267;51.032;6.998;2023-11-18T23:50:56;9.70;99.72
35085;SHT85;21267;51.032;6.998;2023-11-18T23:53:26;9.71;99.75
35085;SHT85;21267;51.032;6.998;2023-11-18T23:55:56;9.69;99.81
35085;SHT85;21267;51.032;6.998;2023-11-18T23:58:25;9.70;99.79
